KMEV/MEV METAR and TAF weather

Enter ICAO airport designator
Station Type Date Time Source
KMEV METAR 2020/01/26 18:55 UTC NOAA

KMEV 261855Z AUTO 27006KT 10SM FEW060 10/03 A3015 RMK AO2


Station Type Date Time Source
KMEV Decoded METAR 2020/01/26 18:55 UTC NOAA

Station name not available
Jan 26, 2020 - 01:55 PM EST / 2020.01.26 1855 UTC
Wind: from the W (270 degrees) at 7 MPH (6 KT):0
Visibility: 10 mile(s):0
Sky conditions: mostly clear
Temperature: 50 F (10 C)
Dew Point: 37 F (3 C)
Relative Humidity: 61%
Pressure (altimeter): 30.15 in. Hg (1020 hPa)
ob: KMEV 261855Z AUTO 27006KT 10SM FEW060 10/03 A3015 RMK AO2
cycle: 19

Station Type Date Time Source
KMEV TAF 2020/01/26 18:33 UTC NOAA

TAF KMEV 261729Z 2618/2718 24008KT P6SM VCSH SCT030 OVC050
FM262000 26010G18KT P6SM SCT060
FM270300 VRB03KT P6SM FEW200

Example: see airport list